Time;durP1;ratioP1;P1;durP2;ratioP2;P2;SDS_P1;SDS_P2;PMS_P1;PMS_P2;Temp;Humidity;BMP_temperature;BMP_pressure;BME280_temperature;BME280_humidity;BME280_pressure;Samples;Min_cycle;Max_cycle;Signal;HPM_P1;HPM_P2
2021/08/24 00:00:25;;;;;;;;;;;;;;;-142.75;77.84;77800.78;4983359;28;19920;-75
2021/08/24 00:02:50;;;;;;;;;;;;;;;-142.75;77.88;77810.63;4989197;28;19914;-75
2021/08/24 00:05:19;;;;;;;;;;;;;;;-142.75;77.89;77806.69;4989166;28;19933;-75
2021/08/24 00:07:44;;;;;;;;;;;;;;;-142.75;78.16;77812.59;4989147;28;19913;-76
2021/08/24 00:10:10;;;;;;;;;;;;;;;-142.75;78.08;77814.56;4988712;28;19913;-75
2021/08/24 00:12:35;;;;;;;;;;;;;;;-142.75;78.31;77822.44;4989157;28;19921;-75
2021/08/24 00:15:00;;;;;;;;;;;;;;;-142.75;78.27;77814.56;4989594;28;20387;-75
2021/08/24 00:17:26;;;;;;;;;;;;;;;-142.75;78.26;77814.56;4988936;28;19925;-75
2021/08/24 00:19:51;;;;;;;;;;;;;;;-142.75;78.20;77818.50;4971582;28;19913;-75
2021/08/24 00:22:16;;;;;;;;;;;;;;;-142.75;78.08;77814.56;4989304;28;19914;-75
2021/08/24 00:24:41;;;;;;;;;;;;;;;-142.75;77.94;77814.56;4972130;28;19976;-75
2021/08/24 00:27:06;;;;;;;;;;;;;;;-142.75;78.05;77814.56;4972282;28;19925;-75
2021/08/24 00:29:31;;;;;;;;;;;;;;;-142.75;77.92;77814.56;4988549;28;20337;-75
2021/08/24 00:31:57;;;;;;;;;;;;;;;-142.75;77.94;77814.56;4988384;28;19913;-75
2021/08/24 00:34:22;;;;;;;;;;;;;;;-142.75;77.81;77814.56;4988964;28;19920;-75
2021/08/24 00:36:47;;;;;;;;;;;;;;;-142.75;77.71;77812.59;5055942;28;19922;-75
2021/08/24 00:39:12;;;;;;;;;;;;;;;-142.75;77.66;77814.56;4987952;28;20330;-76
2021/08/24 00:41:38;;;;;;;;;;;;;;;-142.75;77.60;77820.47;4987798;28;19979;-75
2021/08/24 00:44:07;;;;;;;;;;;;;;;-142.75;77.56;77826.38;4988473;28;19967;-74
2021/08/24 00:46:40;;;;;;;;;;;;;;;-142.75;77.52;77828.34;5055474;28;20004;-75
2021/08/24 00:49:10;;;;;;;;;;;;;;;-142.75;77.38;77838.19;4988681;28;19925;-75
2021/08/24 00:51:37;;;;;;;;;;;;;;;-142.75;77.50;77853.94;4988763;28;19936;-75
2021/08/24 00:54:05;;;;;;;;;;;;;;;-142.75;77.77;77853.94;4988957;28;19952;-75
2021/08/24 00:56:30;;;;;;;;;;;;;;;-142.75;77.95;77855.91;4988965;28;19921;-76
2021/08/24 00:58:56;;;;;;;;;;;;;;;-142.75;77.95;77865.75;4971252;28;20638;-76
2021/08/24 01:01:21;;;;;;;;;;;;;;;-142.75;78.09;77873.63;4988424;28;19914;-74
2021/08/24 01:03:48;;;;;;;;;;;;;;;-142.75;77.93;77877.56;4988491;28;19914;-75
2021/08/24 01:06:18;;;;;;;;;;;;;;;-142.75;78.15;77879.53;4988465;28;19913;-76
2021/08/24 01:08:59;;;;;;;;;;;;;;;-142.75;78.21;77893.31;4988697;28;19963;-75
2021/08/24 01:11:34;;;;;;;;;;;;;;;-142.75;78.21;77897.25;4970847;28;20027;-75
2021/08/24 01:14:18;;;;;;;;;;;;;;;-142.75;78.22;77899.22;4988381;28;19914;-76
2021/08/24 01:16:45;;;;;;;;;;;;;;;-142.75;78.30;77909.06;4971651;28;19918;-75
2021/08/24 01:19:13;;;;;;;;;;;;;;;-142.75;78.52;77920.91;4971111;28;19914;-75
2021/08/24 01:22:01;;;;;;;;;;;;;;;-142.75;78.32;77918.94;4987883;28;19918;-75
2021/08/24 01:24:49;;;;;;;;;;;;;;;-142.75;78.70;77934.69;4988447;28;20379;-76
2021/08/24 01:27:37;;;;;;;;;;;;;;;-142.75;78.53;77936.66;5045251;28;19913;-76
2021/08/24 01:30:30;;;;;;;;;;;;;;;-142.75;78.68;77940.59;4994870;28;19932;-77
2021/08/24 01:32:55;;;;;;;;;;;;;;;-142.75;78.73;77952.41;4988026;28;19945;-76
2021/08/24 01:35:42;;;;;;;;;;;;;;;-142.75;79.10;77962.25;4970873;28;19948;-75
2021/08/24 01:38:16;;;;;;;;;;;;;;;-142.75;79.44;77968.16;5032516;28;20496;-75
2021/08/24 01:41:00;;;;;;;;;;;;;;;-142.75;79.59;77972.09;4987066;28;20395;-75
2021/08/24 01:43:31;;;;;;;;;;;;;;;-142.75;79.93;77985.88;5022019;28;19925;-76
2021/08/24 01:46:05;;;;;;;;;;;;;;;-142.75;80.28;77987.84;4986822;28;19914;-76
2021/08/24 01:48:36;;;;;;;;;;;;;;;-142.75;80.47;77999.66;4986571;28;19959;-75
2021/08/24 01:51:07;;;;;;;;;;;;;;;-142.75;80.55;78007.53;5053494;28;19918;-75
2021/08/24 01:53:35;;;;;;;;;;;;;;;-142.75;80.53;78021.31;5054275;28;19964;-75
2021/08/24 01:56:08;;;;;;;;;;;;;;;-142.75;80.32;78035.09;4987334;28;19956;-76
2021/08/24 01:58:38;;;;;;;;;;;;;;;-142.75;80.51;78052.81;5017897;28;20016;-75
2021/08/24 02:01:07;;;;;;;;;;;;;;;-142.75;80.90;78064.66;4986501;28;19914;-75
2021/08/24 02:03:35;;;;;;;;;;;;;;;-142.75;81.55;78066.63;4986749;28;20422;-75
2021/08/24 02:06:19;;;;;;;;;;;;;;;-142.75;81.96;78082.38;5053131;28;19967;-74
2021/08/24 02:08:47;;;;;;;;;;;;;;;-142.75;82.49;78072.53;5053508;28;19963;-75
2021/08/24 02:11:12;;;;;;;;;;;;;;;-142.75;83.08;78056.78;5053496;28;19913;-75
2021/08/24 02:13:40;;;;;;;;;;;;;;;-142.75;82.88;78068.59;5053723;28;19940;-76
2021/08/24 02:16:09;;;;;;;;;;;;;;;-142.75;82.57;78076.47;4987033;28;20371;-76
2021/08/24 02:18:36;;;;;;;;;;;;;;;-142.75;82.54;78088.28;4987080;28;19924;-75
2021/08/24 02:21:05;;;;;;;;;;;;;;;-142.75;82.48;78090.25;4987085;28;19914;-75
2021/08/24 02:23:32;;;;;;;;;;;;;;;-142.75;82.60;78094.19;5053729;28;20004;-76
2021/08/24 02:26:00;;;;;;;;;;;;;;;-142.75;82.87;78084.34;5053365;28;19913;-76
2021/08/24 02:28:32;;;;;;;;;;;;;;;-142.75;83.03;78090.25;4987117;28;19914;-75
2021/08/24 02:31:00;;;;;;;;;;;;;;;-142.75;83.23;78098.13;5002712;28;19920;-75
2021/08/24 02:33:29;;;;;;;;;;;;;;;-142.75;83.50;78102.06;4987225;28;19913;-75
2021/08/24 02:35:57;;;;;;;;;;;;;;;-142.75;83.72;78109.94;4986949;28;19920;-74
2021/08/24 02:38:26;;;;;;;;;;;;;;;-142.75;83.96;78111.91;4986725;28;19976;-75
2021/08/24 02:41:01;;;;;;;;;;;;;;;-142.75;84.16;78113.88;5052747;28;19921;-75
2021/08/24 02:43:45;;;;;;;;;;;;;;;-142.75;84.38;78106.00;5052681;28;19918;-75
2021/08/24 02:46:27;;;;;;;;;;;;;;;-142.75;84.32;78106.00;5052920;28;20298;-75
2021/08/24 02:48:55;;;;;;;;;;;;;;;-142.75;84.23;78106.00;4968592;28;20375;-75
2021/08/24 02:51:21;;;;;;;;;;;;;;;-142.75;84.33;78098.13;4969132;28;19913;-75
2021/08/24 02:53:48;;;;;;;;;;;;;;;-142.75;84.42;78106.00;4986435;28;20272;-74
2021/08/24 02:56:14;;;;;;;;;;;;;;;-142.75;84.35;78102.06;4986568;28;19957;-75
2021/08/24 02:58:39;;;;;;;;;;;;;;;-142.75;84.56;78102.06;4986697;28;20027;-75
2021/08/24 03:01:04;;;;;;;;;;;;;;;-142.75;84.66;78107.97;4984508;28;19963;-75
2021/08/24 03:03:29;;;;;;;;;;;;;;;-142.75;84.88;78098.13;4987673;28;20304;-76
2021/08/24 03:05:56;;;;;;;;;;;;;;;-142.75;85.32;78094.19;4989797;28;19913;-74
2021/08/24 03:08:22;;;;;;;;;;;;;;;-142.75;85.22;78094.19;4972617;28;19913;-75
2021/08/24 03:10:48;;;;;;;;;;;;;;;-142.75;85.21;78094.19;4989272;28;20268;-75
2021/08/24 03:13:33;;;;;;;;;;;;;;;-142.75;85.21;78098.13;4989837;28;19913;-75
2021/08/24 03:16:02;;;;;;;;;;;;;;;-142.75;85.38;78098.13;4989631;28;19950;-74
2021/08/24 03:18:42;;;;;;;;;;;;;;;-142.75;85.74;78098.13;4972332;28;20375;-75
2021/08/24 03:21:10;;;;;;;;;;;;;;;-142.75;86.05;78088.28;4972498;28;19957;-74
2021/08/24 03:23:37;;;;;;;;;;;;;;;-142.75;86.47;78082.38;4989415;28;19919;-76
2021/08/24 03:26:02;;;;;;;;;;;;;;;-142.75;86.77;78078.44;4989742;28;19992;-75
2021/08/24 03:28:27;;;;;;;;;;;;;;;-142.75;87.05;78078.44;4989774;28;19964;-74
2021/08/24 03:30:53;;;;;;;;;;;;;;;-142.75;87.26;78080.41;5035395;22;19975;-77
2021/08/24 03:33:18;;;;;;;;;;;;;;;-142.75;87.61;78074.50;5024353;28;20297;-76
2021/08/24 03:35:43;;;;;;;;;;;;;;;-142.75;87.96;78070.56;5028245;28;20297;-76
2021/08/24 03:38:08;;;;;;;;;;;;;;;-142.75;88.13;78066.63;5028483;28;19970;-75
2021/08/24 03:40:33;;;;;;;;;;;;;;;-142.75;88.33;78060.72;5039837;28;19920;-75
2021/08/24 03:42:59;;;;;;;;;;;;;;;-142.75;88.50;78054.81;5045420;28;19920;-76
2021/08/24 03:45:24;;;;;;;;;;;;;;;-142.75;88.75;78058.72;5039452;28;19959;-77
2021/08/24 03:47:49;;;;;;;;;;;;;;;-142.75;88.83;78058.72;5039285;28;20000;-76
2021/08/24 03:50:15;;;;;;;;;;;;;;;-142.75;88.85;78054.81;5047326;28;20015;-76
2021/08/24 03:52:40;;;;;;;;;;;;;;;-142.75;89.08;78058.72;5067164;28;19969;-77
2021/08/24 03:55:05;;;;;;;;;;;;;;;-142.75;89.22;78052.81;5028428;28;19994;-75
2021/08/24 03:57:31;;;;;;;;;;;;;;;-142.75;89.29;78048.88;5085637;28;20365;-77
2021/08/24 03:59:56;;;;;;;;;;;;;;;-142.75;89.45;78046.91;5047460;28;21434;-76
2021/08/24 04:02:21;;;;;;;;;;;;;;;-142.75;89.59;78046.91;5047742;28;19920;-76
2021/08/24 04:04:46;;;;;;;;;;;;;;;-142.75;89.87;78042.97;5033606;28;19913;-75
2021/08/24 04:07:12;;;;;;;;;;;;;;;-142.75;90.04;78044.94;5033662;28;19913;-75
2021/08/24 04:09:37;;;;;;;;;;;;;;;-142.75;90.36;78048.88;5038043;28;20293;-77
2021/08/24 04:12:02;;;;;;;;;;;;;;;-142.75;90.64;78035.09;5067748;28;19962;-76
2021/08/24 04:14:27;;;;;;;;;;;;;;;-142.75;90.86;78029.19;5081475;28;19947;-76
2021/08/24 04:16:52;;;;;;;;;;;;;;;-142.75;91.09;78021.31;5047345;28;20596;-76
2021/08/24 04:19:18;;;;;;;;;;;;;;;-142.75;91.27;78017.38;5084247;28;19919;-76
2021/08/24 04:21:43;;;;;;;;;;;;;;;-142.75;91.46;78007.53;5028985;28;19920;-77
2021/08/24 04:24:08;;;;;;;;;;;;;;;-142.75;91.35;78003.59;5042492;28;20014;-77
2021/08/24 04:26:34;;;;;;;;;;;;;;;-142.75;91.28;77995.72;5039391;28;19920;-76
2021/08/24 04:28:59;;;;;;;;;;;;;;;-142.75;91.39;78001.63;5039404;28;19920;-77
2021/08/24 04:31:24;;;;;;;;;;;;;;;-142.75;91.05;77997.69;5032940;28;19963;-77
2021/08/24 04:33:50;;;;;;;;;;;;;;;-142.75;91.21;77991.78;5031073;28;19924;-77
2021/08/24 04:36:15;;;;;;;;;;;;;;;-142.75;91.21;77991.78;5036274;28;19912;-78
2021/08/24 04:38:41;;;;;;;;;;;;;;;-142.75;91.06;77981.94;5058095;28;19917;-76
2021/08/24 04:41:06;;;;;;;;;;;;;;;-142.75;91.05;77979.97;5047016;28;20372;-77
2021/08/24 04:43:32;;;;;;;;;;;;;;;-142.75;91.01;77985.88;5038304;28;20001;-77
2021/08/24 04:45:57;;;;;;;;;;;;;;;-142.75;91.18;77983.91;5029751;28;19913;-78
2021/08/24 04:48:22;;;;;;;;;;;;;;;-142.75;91.16;77976.03;5052756;28;20269;-77
2021/08/24 04:50:47;;;;;;;;;;;;;;;-142.75;91.25;77970.13;5043903;28;19920;-76
2021/08/24 04:53:13;;;;;;;;;;;;;;;-142.75;91.25;77960.28;5041429;28;19978;-77
2021/08/24 04:55:38;;;;;;;;;;;;;;;-142.75;91.37;77962.25;5037908;28;20666;-76
2021/08/24 04:58:03;;;;;;;;;;;;;;;-142.75;91.36;77958.31;5058091;28;19924;-75
2021/08/24 05:00:33;;;;;;;;;;;;;;;-142.75;91.49;77950.44;5083175;28;19920;-76
2021/08/24 05:02:58;;;;;;;;;;;;;;;-142.75;91.62;77954.38;5040829;28;19912;-77
2021/08/24 05:05:23;;;;;;;;;;;;;;;-142.75;91.56;77944.53;5035932;28;20000;-77
2021/08/24 05:07:48;;;;;;;;;;;;;;;-142.75;91.92;77942.56;5039050;28;20385;-76
2021/08/24 05:10:14;;;;;;;;;;;;;;;-142.75;91.96;77940.59;5042007;28;19965;-76
2021/08/24 05:12:39;;;;;;;;;;;;;;;-142.75;91.93;77942.56;5042755;28;19919;-77
2021/08/24 05:15:04;;;;;;;;;;;;;;;-142.75;91.97;77936.66;5034164;28;20360;-77
2021/08/24 05:17:30;;;;;;;;;;;;;;;-142.75;92.09;77934.69;5041301;28;19959;-77
2021/08/24 05:19:55;;;;;;;;;;;;;;;-142.75;92.05;77928.78;5052063;28;19912;-77
2021/08/24 05:22:20;;;;;;;;;;;;;;;-142.75;92.06;77920.91;5037381;28;19944;-76
2021/08/24 05:24:45;;;;;;;;;;;;;;;-142.75;92.06;77913.03;5071948;28;19913;-78
2021/08/24 05:27:10;;;;;;;;;;;;;;;-142.75;92.00;77901.19;5034449;28;20386;-77
2021/08/24 05:29:35;;;;;;;;;;;;;;;-142.75;91.92;77889.38;5031773;28;19913;-78
2021/08/24 05:32:02;;;;;;;;;;;;;;;-142.75;91.70;77861.81;5068552;28;19973;-77
2021/08/24 05:34:27;;;;;;;;;;;;;;;-142.75;91.17;77846.06;5038670;28;19912;-76
2021/08/24 05:36:52;;;;;;;;;;;;;;;-142.75;90.67;77820.47;5073149;28;20412;-77
2021/08/24 05:39:18;;;;;;;;;;;;;;;-142.75;89.78;77802.75;5071872;28;19913;-77
2021/08/24 05:41:43;;;;;;;;;;;;;;;-142.75;88.96;77775.19;5032113;28;19957;-77
2021/08/24 05:44:09;;;;;;;;;;;;;;;-142.75;87.74;77745.66;5088785;28;19913;-76
2021/08/24 05:46:34;;;;;;;;;;;;;;;-142.75;86.29;77716.09;5058297;28;19965;-78
2021/08/24 05:48:59;;;;;;;;;;;;;;;-142.75;84.78;77688.53;5041215;28;19917;-76
2021/08/24 05:51:24;;;;;;;;;;;;;;;-142.75;83.26;77645.22;5033333;28;19913;-77
2021/08/24 05:53:50;;;;;;;;;;;;;;;-142.75;81.55;77601.91;5044920;28;19916;-76
2021/08/24 05:56:16;;;;;;;;;;;;;;;-142.75;79.56;77562.53;5043502;28;19919;-76
2021/08/24 05:58:42;;;;;;;;;;;;;;;-142.75;77.16;77511.34;5041362;28;19917;-77
2021/08/24 06:01:07;;;;;;;;;;;;;;;-142.75;74.87;77468.03;5039505;28;19920;-76
2021/08/24 06:03:33;;;;;;;;;;;;;;;-142.75;73.13;77462.13;5052627;28;19926;-76
2021/08/24 06:05:58;;;;;;;;;;;;;;;-142.75;71.73;77442.41;5055963;28;20271;-77
2021/08/24 06:08:23;;;;;;;;;;;;;;;-142.75;71.80;77420.75;5091326;28;20000;-77
2021/08/24 06:10:49;;;;;;;;;;;;;;;-142.75;71.18;77385.31;5041619;28;19920;-77
2021/08/24 06:13:14;;;;;;;;;;;;;;;-142.75;69.96;77347.91;5034274;28;19921;-77
2021/08/24 06:15:39;;;;;;;;;;;;;;;-142.75;68.98;77322.31;5062856;28;20099;-76
2021/08/24 06:18:04;;;;;;;;;;;;;;;-142.75;67.94;77298.69;5096423;28;19917;-76
2021/08/24 06:20:29;;;;;;;;;;;;;;;-142.75;66.53;77263.25;5041820;28;20045;-76
2021/08/24 06:22:55;;;;;;;;;;;;;;;-142.75;65.66;77219.94;5036480;28;19935;-77
2021/08/24 06:25:22;;;;;;;;;;;;;;;-142.75;63.91;77178.59;5052712;28;19917;-77
2021/08/24 06:27:47;;;;;;;;;;;;;;;-142.75;62.43;77208.13;5036884;28;19996;-77
2021/08/24 06:30:13;;;;;;;;;;;;;;;-142.75;63.48;77180.56;5033678;28;20438;-77
2021/08/24 06:32:41;;;;;;;;;;;;;;;-142.75;62.74;77127.41;5031829;28;19988;-76
2021/08/24 06:35:07;;;;;;;;;;;;;;;-142.75;61.05;77050.63;5054550;28;20366;-76
2021/08/24 06:37:32;;;;;;;;;;;;;;;-142.75;59.30;76977.78;5045015;28;19930;-75
2021/08/24 06:39:58;;;;;;;;;;;;;;;-142.75;57.24;76930.53;5028248;28;19913;-76
2021/08/24 06:42:23;;;;;;;;;;;;;;;-142.75;55.43;76887.22;5044708;28;20228;-74
2021/08/24 06:44:48;;;;;;;;;;;;;;;-142.75;54.64;76845.88;5027373;28;19917;-75
2021/08/24 06:47:13;;;;;;;;;;;;;;;-142.75;54.67;76843.91;5027713;28;19920;-75
2021/08/24 06:49:39;;;;;;;;;;;;;;;-142.75;54.09;76873.44;5030772;28;20423;-76
2021/08/24 06:52:05;;;;;;;;;;;;;;;-142.75;54.30;76818.31;5025204;28;19916;-76
2021/08/24 06:54:31;;;;;;;;;;;;;;;-142.75;53.56;76794.69;5025152;28;19917;-75
2021/08/24 06:56:57;;;;;;;;;;;;;;;-142.75;52.95;76775.03;5093129;28;19917;-76
2021/08/24 06:59:22;;;;;;;;;;;;;;;-142.75;51.99;76745.50;5025225;28;19913;-76
2021/08/24 07:01:48;;;;;;;;;;;;;;;-142.75;51.74;76710.06;5092276;28;19913;-74
2021/08/24 07:04:13;;;;;;;;;;;;;;;-142.75;50.36;76715.97;5093059;28;19965;-75
2021/08/24 07:06:39;;;;;;;;;;;;;;;-142.75;51.05;76684.47;5061152;28;19912;-76
2021/08/24 07:09:05;;;;;;;;;;;;;;;-142.75;50.03;76633.28;5027087;28;19951;-76
2021/08/24 07:11:30;;;;;;;;;;;;;;;-142.75;49.11;76615.56;5044330;28;20362;-76
2021/08/24 07:13:56;;;;;;;;;;;;;;;-142.75;49.10;76599.81;5027214;28;19920;-76
2021/08/24 07:16:21;;;;;;;;;;;;;;;-142.75;48.54;76566.34;5044824;28;20007;-75
2021/08/24 07:18:47;;;;;;;;;;;;;;;-142.75;47.82;76525.03;5027157;28;20015;-74
2021/08/24 07:21:16;;;;;;;;;;;;;;;-142.75;46.31;76485.66;5044682;28;20011;-75
2021/08/24 07:23:41;;;;;;;;;;;;;;;-142.75;45.62;76499.44;5051314;28;19916;-74
2021/08/24 07:26:06;;;;;;;;;;;;;;;-142.75;45.78;76525.03;5024998;28;20321;-75
2021/08/24 07:28:31;;;;;;;;;;;;;;;-142.75;46.37;76479.75;5092749;28;19916;-75
2021/08/24 07:30:56;;;;;;;;;;;;;;;-142.75;45.75;76391.16;5024473;28;19913;-76
2021/08/24 07:33:22;;;;;;;;;;;;;;;-142.75;44.92;76399.03;5024951;28;19966;-75
2021/08/24 07:35:47;;;;;;;;;;;;;;;-142.75;43.60;76389.19;5024801;28;19921;-75
2021/08/24 07:38:13;;;;;;;;;;;;;;;-142.75;43.11;76357.69;5024467;28;19928;-75
2021/08/24 07:40:38;;;;;;;;;;;;;;;-142.75;44.76;76371.47;5024296;28;20031;-74
2021/08/24 07:43:03;;;;;;;;;;;;;;;-142.75;43.49;76290.78;5024666;28;20336;-75
2021/08/24 07:45:29;;;;;;;;;;;;;;;-142.75;42.34;76286.84;5092856;28;19913;-75
2021/08/24 07:47:54;;;;;;;;;;;;;;;-142.75;41.75;76204.16;5042256;28;19999;-76
2021/08/24 07:50:19;;;;;;;;;;;;;;;-142.75;40.89;76172.69;5040521;28;21525;-75
2021/08/24 07:52:44;;;;;;;;;;;;;;;-142.75;40.33;76115.59;5036429;28;19913;-76
2021/08/24 07:55:11;;;;;;;;;;;;;;;-142.75;40.16;76111.66;5035964;28;19928;-75
2021/08/24 07:57:36;;;;;;;;;;;;;;;-142.75;39.25;76034.91;5028448;28;20405;-75
2021/08/24 08:00:02;;;;;;;;;;;;;;;-142.75;38.72;75991.59;5027631;28;19940;-76
2021/08/24 08:02:27;;;;;;;;;;;;;;;-142.75;38.11;75920.75;5029182;28;19936;-76
2021/08/24 08:04:53;;;;;;;;;;;;;;;-142.75;37.01;75977.81;5047362;28;19913;-75
2021/08/24 08:07:19;;;;;;;;;;;;;;;-142.75;38.06;75995.53;5029842;28;19956;-75
2021/08/24 08:09:44;;;;;;;;;;;;;;;-142.75;38.75;76105.75;5029730;28;19923;-74
2021/08/24 08:12:10;;;;;;;;;;;;;;;-142.75;38.32;76151.03;5035461;28;20091;-76
2021/08/24 08:14:35;;;;;;;;;;;;;;;-142.75;38.86;76025.06;5040728;28;20290;-76
2021/08/24 08:17:00;;;;;;;;;;;;;;;-142.75;38.14;75944.38;5027346;28;19982;-75
2021/08/24 08:19:26;;;;;;;;;;;;;;;-142.75;37.29;75875.47;5043108;28;19995;-75
2021/08/24 08:21:51;;;;;;;;;;;;;;;-142.75;36.45;75798.72;5040851;28;20004;-75
2021/08/24 08:24:16;;;;;;;;;;;;;;;-142.75;35.72;75755.44;5039219;28;20017;-75
2021/08/24 08:26:41;;;;;;;;;;;;;;;-142.75;35.39;75731.81;5027786;28;20361;-76
2021/08/24 08:29:11;;;;;;;;;;;;;;;-142.75;35.31;75781.00;5027667;28;19921;-76
2021/08/24 08:31:38;;;;;;;;;;;;;;;-142.75;35.52;75786.91;5034036;28;19912;-77
2021/08/24 08:34:03;;;;;;;;;;;;;;;-142.75;34.97;75747.56;5027617;28;19919;-75
2021/08/24 08:36:29;;;;;;;;;;;;;;;-142.75;34.67;75702.28;5027400;28;20342;-75
2021/08/24 08:38:54;;;;;;;;;;;;;;;-142.75;33.76;75660.97;5086597;28;19917;-76
2021/08/24 08:41:22;;;;;;;;;;;;;;;-142.75;33.74;75635.38;5026814;28;19965;-76
2021/08/24 08:43:47;;;;;;;;;;;;;;;-142.75;33.11;75597.97;5041361;28;19965;-76
2021/08/24 08:46:21;;;;;;;;;;;;;;;-142.75;33.13;75572.41;5036950;28;19916;-75
2021/08/24 08:48:49;;;;;;;;;;;;;;;-142.75;33.19;75544.84;5047073;28;19920;-76
2021/08/24 08:51:29;;;;;;;;;;;;;;;-142.75;32.63;75558.63;5029733;28;20431;-77
2021/08/24 08:54:00;;;;;;;;;;;;;;;-142.75;32.85;75597.97;5036832;28;20301;-76
2021/08/24 08:56:26;;;;;;;;;;;;;;;-142.75;33.32;75613.72;5027874;28;19965;-76
2021/08/24 08:58:57;;;;;;;;;;;;;;;-142.75;32.27;75684.56;5026894;28;19925;-76
2021/08/24 09:01:22;;;;;;;;;;;;;;;-142.75;32.68;75786.91;5068348;28;20429;-76
2021/08/24 09:03:55;;;;;;;;;;;;;;;-142.75;33.70;75863.66;5043603;28;20008;-76
2021/08/24 09:06:22;;;;;;;;;;;;;;;-142.75;34.01;75747.56;5041575;28;19913;-76
2021/08/24 09:08:47;;;;;;;;;;;;;;;-142.75;33.15;75664.91;5026294;28;19921;-77
2021/08/24 09:11:13;;;;;;;;;;;;;;;-142.75;32.82;75596.00;5035423;28;19920;-76
2021/08/24 09:13:44;;;;;;;;;;;;;;;-142.75;31.98;75556.66;5057067;28;20370;-77
2021/08/24 09:16:12;;;;;;;;;;;;;;;-142.75;31.34;75519.25;5033679;28;19974;-77
2021/08/24 09:18:41;;;;;;;;;;;;;;;-142.75;30.89;75507.47;5032418;28;19916;-76
2021/08/24 09:21:08;;;;;;;;;;;;;;;-142.75;31.90;75554.69;5058859;28;19997;-77
2021/08/24 09:23:33;;;;;;;;;;;;;;;-142.75;31.46;75466.13;5041318;28;19917;-75
2021/08/24 09:26:10;;;;;;;;;;;;;;;-142.75;31.63;75424.81;5057839;28;20336;-76
2021/08/24 09:28:35;;;;;;;;;;;;;;;-142.75;31.01;75381.50;5052488;28;19921;-76
2021/08/24 09:31:02;;;;;;;;;;;;;;;-142.75;30.90;75405.13;5035661;28;19920;-76
2021/08/24 09:33:28;;;;;;;;;;;;;;;-142.75;31.27;75383.47;5039573;28;19917;-75
2021/08/24 09:35:54;;;;;;;;;;;;;;;-142.75;32.11;75446.44;5052194;28;19913;-77
2021/08/24 09:38:19;;;;;;;;;;;;;;;-142.75;32.48;75448.41;5039432;28;19917;-76
2021/08/24 09:40:46;;;;;;;;;;;;;;;-142.75;31.26;75418.91;5088078;28;19921;-77
2021/08/24 09:43:30;;;;;;;;;;;;;;;-142.75;31.35;75442.50;5065162;28;20427;-77
2021/08/24 09:45:58;;;;;;;;;;;;;;;-142.75;32.04;75413.00;5086688;28;19920;-75
2021/08/24 09:48:24;;;;;;;;;;;;;;;-142.75;31.12;75375.59;5041312;28;19916;-77
2021/08/24 09:50:49;;;;;;;;;;;;;;;-142.75;31.16;75381.50;5035522;28;19913;-77
2021/08/24 09:53:31;;;;;;;;;;;;;;;-142.75;30.26;75324.44;5046077;28;20361;-76
2021/08/24 09:55:56;;;;;;;;;;;;;;;-142.75;30.08;75344.13;5033749;28;19969;-75
2021/08/24 09:58:34;;;;;;;;;;;;;;;-142.75;29.80;75375.59;5029089;28;19917;-77
2021/08/24 10:01:02;;;;;;;;;;;;;;;-142.75;30.18;75377.56;5045303;28;20547;-77
2021/08/24 10:03:37;;;;;;;;;;;;;;;-142.75;30.38;75310.66;5045802;28;19917;-76
2021/08/24 10:06:15;;;;;;;;;;;;;;;-142.75;29.75;75296.88;5033360;28;19993;-77
2021/08/24 10:08:41;;;;;;;;;;;;;;;-142.75;29.59;75306.72;5042200;28;19986;-77
2021/08/24 10:11:10;;;;;;;;;;;;;;;-142.75;30.01;75357.91;5035543;28;20004;-76
2021/08/24 10:13:37;;;;;;;;;;;;;;;-142.75;29.30;75365.75;5044310;28;19977;-75
2021/08/24 10:16:05;;;;;;;;;;;;;;;-142.75;29.20;75296.88;5084217;28;19917;-76
2021/08/24 10:18:30;;;;;;;;;;;;;;;-142.75;28.24;75298.84;5043099;28;19923;-77
2021/08/24 10:21:25;;;;;;;;;;;;;;;-142.75;29.14;75312.63;5093544;28;19921;-76
2021/08/24 10:23:56;;;;;;;;;;;;;;;-142.75;29.59;75310.66;5025589;28;20382;-76
2021/08/24 10:26:26;;;;;;;;;;;;;;;-142.75;29.46;75277.22;5040750;28;20005;-76
2021/08/24 10:28:56;;;;;;;;;;;;;;;-142.75;28.80;75247.69;5026618;28;19927;-76
2021/08/24 10:31:28;;;;;;;;;;;;;;;-142.75;28.59;75228.00;5025148;28;20362;-75
2021/08/24 10:34:02;;;;;;;;;;;;;;;-142.75;29.66;75277.22;5025076;28;19913;-75
2021/08/24 10:36:27;;;;;;;;;;;;;;;-142.75;28.62;75251.63;5037987;28;19919;-76
2021/08/24 10:39:11;;;;;;;;;;;;;;;-142.75;28.46;75279.19;5092697;28;19917;-76
2021/08/24 10:41:41;;;;;;;;;;;;;;;-142.75;30.42;75558.63;5037566;28;20025;-75
2021/08/24 10:44:26;;;;;;;;;;;;;;;-142.75;30.56;75570.44;5045341;28;20370;-76
2021/08/24 10:46:53;;;;;;;;;;;;;;;-142.75;30.82;75472.03;5024266;28;19913;-76
2021/08/24 10:49:19;;;;;;;;;;;;;;;-142.75;30.79;75430.72;5093036;28;19995;-78
2021/08/24 10:51:50;;;;;;;;;;;;;;;-142.75;29.70;75350.03;5093447;28;20000;-77
2021/08/24 10:54:41;;;;;;;;;;;;;;;-142.75;30.07;75338.22;5024913;28;20327;-76
2021/08/24 10:57:12;;;;;;;;;;;;;;;-142.75;28.61;75401.19;5059292;28;19939;-77
2021/08/24 10:59:44;;;;;;;;;;;;;;;-142.75;30.37;75531.06;5026224;28;19969;-77
2021/08/24 11:02:12;;;;;;;;;;;;;;;-142.75;29.56;75586.19;5025255;28;19917;-76
2021/08/24 11:04:37;;;;;;;;;;;;;;;-142.75;29.96;75720.00;5041825;28;19913;-75
2021/08/24 11:07:09;;;;;;;;;;;;;;;-142.75;31.63;75745.59;5023667;28;19982;-75
2021/08/24 11:09:34;;;;;;;;;;;;;;;-142.75;30.40;75779.03;5091029;22;19921;-77
2021/08/24 11:12:03;;;;;;;;;;;;;;;-142.75;31.13;75637.34;5049193;28;19924;-77
2021/08/24 11:14:43;;;;;;;;;;;;;;;-142.75;29.98;75694.41;4984783;28;19914;-77
2021/08/24 11:17:27;;;;;;;;;;;;;;;-142.75;30.49;75674.72;4987030;28;19924;-78
2021/08/24 11:20:10;;;;;;;;;;;;;;;-142.75;30.64;75723.94;5000401;28;19913;-77
2021/08/24 11:23:04;;;;;;;;;;;;;;;-142.75;31.04;75706.22;5063394;28;19928;-77
2021/08/24 11:25:45;;;;;;;;;;;;;;;-142.75;29.84;75686.53;4993497;28;19971;-76
2021/08/24 11:28:32;;;;;;;;;;;;;;;-142.75;30.74;75692.44;5073080;28;19942;-76
2021/08/24 11:31:15;;;;;;;;;;;;;;;-142.75;30.64;75625.53;4994150;28;19964;-76
2021/08/24 11:33:49;;;;;;;;;;;;;;;-142.75;30.19;75556.66;4999073;28;19920;-76
2021/08/24 11:36:19;;;;;;;;;;;;;;;-142.75;28.92;75507.47;5069609;28;20015;-76
2021/08/24 11:38:51;;;;;;;;;;;;;;;-142.75;29.30;75525.16;4997998;28;19921;-77
2021/08/24 11:41:22;;;;;;;;;;;;;;;-142.75;30.24;75533.03;4997998;28;19914;-78
2021/08/24 11:43:50;;;;;;;;;;;;;;;-142.75;29.14;75660.97;5069097;28;19978;-77
2021/08/24 11:46:21;;;;;;;;;;;;;;;-142.75;30.44;75867.59;5069175;28;19917;-77
2021/08/24 11:48:48;;;;;;;;;;;;;;;-142.75;32.61;75948.31;5077324;28;20436;-77
2021/08/24 11:51:18;;;;;;;;;;;;;;;-142.75;31.21;75952.25;5068767;28;19913;-75
2021/08/24 11:53:49;;;;;;;;;;;;;;;-142.75;32.21;75999.47;4990433;28;21974;-76
2021/08/24 11:56:32;;;;;;;;;;;;;;;-142.75;33.10;76005.38;5061360;28;19919;-76
2021/08/24 11:59:01;;;;;;;;;;;;;;;-142.75;33.11;76005.38;4992740;28;19920;-76
2021/08/24 12:01:28;;;;;;;;;;;;;;;-142.75;33.62;76042.78;4989178;28;19921;-75
2021/08/24 12:03:55;;;;;;;;;;;;;;;-142.75;33.73;76090.00;5062246;28;19912;-76
2021/08/24 12:06:24;;;;;;;;;;;;;;;-142.75;35.38;76082.13;5060265;28;19912;-76
2021/08/24 12:08:52;;;;;;;;;;;;;;;-142.75;33.62;76086.06;4995028;28;20422;-75
2021/08/24 12:11:23;;;;;;;;;;;;;;;-142.75;33.37;76090.00;5064727;28;20418;-76
2021/08/24 12:13:53;;;;;;;;;;;;;;;-142.75;33.02;76121.50;4990342;28;19913;-76
2021/08/24 12:16:18;;;;;;;;;;;;;;;-142.75;34.23;76149.06;5075527;28;20526;-76
2021/08/24 12:18:43;;;;;;;;;;;;;;;-142.75;33.55;76160.88;5004574;28;19914;-76
2021/08/24 12:21:28;;;;;;;;;;;;;;;-142.75;34.20;76188.44;4988055;28;19960;-76
2021/08/24 12:23:54;;;;;;;;;;;;;;;-142.75;34.04;76215.97;4988702;28;19913;-76
2021/08/24 12:26:19;;;;;;;;;;;;;;;-142.75;34.74;76215.97;4997149;28;19936;-75
2021/08/24 12:28:44;;;;;;;;;;;;;;;-142.75;34.55;76302.59;4995827;28;20008;-76
2021/08/24 12:31:10;;;;;;;;;;;;;;;-142.75;36.71;76296.69;4999093;28;19922;-77
2021/08/24 12:33:36;;;;;;;;;;;;;;;-142.75;36.16;76294.72;4989525;28;20386;-76